sensor_id;sensor_type;location;lat;lon;timestamp;temperature;humidity
54178;DHT22;40085;53.004;6.770;2023-04-09T00:00:36;8.30;97.90
54178;DHT22;40085;53.004;6.770;2023-04-09T00:03:01;8.30;99.90
54178;DHT22;40085;53.004;6.770;2023-04-09T00:05:27;8.30;99.90
54178;DHT22;40085;53.004;6.770;2023-04-09T00:07:53;8.30;97.90
54178;DHT22;40085;53.004;6.770;2023-04-09T00:10:18;8.30;97.70
54178;DHT22;40085;53.004;6.770;2023-04-09T00:12:44;8.30;98.30
54178;DHT22;40085;53.004;6.770;2023-04-09T00:15:10;8.30;98.50
54178;DHT22;40085;53.004;6.770;2023-04-09T00:17:36;8.20;97.40
54178;DHT22;40085;53.004;6.770;2023-04-09T00:20:01;8.20;98.10
54178;DHT22;40085;53.004;6.770;2023-04-09T00:22:28;8.20;97.40
54178;DHT22;40085;53.004;6.770;2023-04-09T00:24:54;8.20;99.10
54178;DHT22;40085;53.004;6.770;2023-04-09T00:27:20;8.20;97.70
54178;DHT22;40085;53.004;6.770;2023-04-09T00:29:45;8.20;99.90
54178;DHT22;40085;53.004;6.770;2023-04-09T00:32:12;8.20;99.90
54178;DHT22;40085;53.004;6.770;2023-04-09T00:34:38;8.10;99.90
54178;DHT22;40085;53.004;6.770;2023-04-09T00:37:04;8.10;99.90
54178;DHT22;40085;53.004;6.770;2023-04-09T00:39:29;8.10;99.90
54178;DHT22;40085;53.004;6.770;2023-04-09T00:41:56;8.10;99.90
54178;DHT22;40085;53.004;6.770;2023-04-09T00:44:23;8.10;99.40
54178;DHT22;40085;53.004;6.770;2023-04-09T00:46:48;8.00;99.90
54178;DHT22;40085;53.004;6.770;2023-04-09T00:49:14;8.10;99.90
54178;DHT22;40085;53.004;6.770;2023-04-09T00:51:40;8.10;99.90
54178;DHT22;40085;53.004;6.770;2023-04-09T00:54:06;8.00;99.90
54178;DHT22;40085;53.004;6.770;2023-04-09T00:56:32;8.00;99.90
54178;DHT22;40085;53.004;6.770;2023-04-09T00:58:58;8.00;99.90
54178;DHT22;40085;53.004;6.770;2023-04-09T01:01:24;8.00;99.90
54178;DHT22;40085;53.004;6.770;2023-04-09T01:03:50;8.00;99.90
54178;DHT22;40085;53.004;6.770;2023-04-09T01:06:24;8.00;99.90
54178;DHT22;40085;53.004;6.770;2023-04-09T01:09:28;8.00;99.90
54178;DHT22;40085;53.004;6.770;2023-04-09T01:12:19;8.00;99.90
54178;DHT22;40085;53.004;6.770;2023-04-09T01:15:04;8.00;99.90
54178;DHT22;40085;53.004;6.770;2023-04-09T01:17:45;8.00;99.90
54178;DHT22;40085;53.004;6.770;2023-04-09T01:20:21;7.90;99.90
54178;DHT22;40085;53.004;6.770;2023-04-09T01:23:13;8.00;99.90
54178;DHT22;40085;53.004;6.770;2023-04-09T01:28:33;7.90;99.90
54178;DHT22;40085;53.004;6.770;2023-04-09T01:31:03;7.90;99.90
54178;DHT22;40085;53.004;6.770;2023-04-09T01:33:31;8.00;99.90
54178;DHT22;40085;53.004;6.770;2023-04-09T01:35:59;7.90;99.90
54178;DHT22;40085;53.004;6.770;2023-04-09T01:38:25;7.90;99.90
54178;DHT22;40085;53.004;6.770;2023-04-09T01:40:54;7.90;99.90
54178;DHT22;40085;53.004;6.770;2023-04-09T01:43:20;7.90;99.90
54178;DHT22;40085;53.004;6.770;2023-04-09T01:45:46;7.80;99.90
54178;DHT22;40085;53.004;6.770;2023-04-09T01:48:13;8.80;99.90
54178;DHT22;40085;53.004;6.770;2023-04-09T01:50:39;7.80;99.90
54178;DHT22;40085;53.004;6.770;2023-04-09T01:53:05;7.80;99.90
54178;DHT22;40085;53.004;6.770;2023-04-09T01:55:31;7.80;99.90
54178;DHT22;40085;53.004;6.770;2023-04-09T01:57:57;7.70;99.90
54178;DHT22;40085;53.004;6.770;2023-04-09T02:00:24;7.70;99.90
54178;DHT22;40085;53.004;6.770;2023-04-09T02:05:35;7.70;99.90
54178;DHT22;40085;53.004;6.770;2023-04-09T02:08:02;7.70;99.90
54178;DHT22;40085;53.004;6.770;2023-04-09T02:10:32;7.70;99.90
54178;DHT22;40085;53.004;6.770;2023-04-09T02:13:00;7.70;99.90
54178;DHT22;40085;53.004;6.770;2023-04-09T02:15:27;7.70;99.90
54178;DHT22;40085;53.004;6.770;2023-04-09T02:17:53;7.60;99.90
54178;DHT22;40085;53.004;6.770;2023-04-09T02:20:20;7.60;99.90
54178;DHT22;40085;53.004;6.770;2023-04-09T02:22:46;7.60;99.90
54178;DHT22;40085;53.004;6.770;2023-04-09T02:25:12;7.60;99.90
54178;DHT22;40085;53.004;6.770;2023-04-09T02:27:37;7.60;99.90
54178;DHT22;40085;53.004;6.770;2023-04-09T02:30:03;7.60;99.90
54178;DHT22;40085;53.004;6.770;2023-04-09T02:32:29;7.60;99.90
54178;DHT22;40085;53.004;6.770;2023-04-09T02:34:54;7.60;99.90
54178;DHT22;40085;53.004;6.770;2023-04-09T02:37:20;7.60;99.90
54178;DHT22;40085;53.004;6.770;2023-04-09T02:39:45;7.60;99.90
54178;DHT22;40085;53.004;6.770;2023-04-09T02:42:11;7.70;99.90
54178;DHT22;40085;53.004;6.770;2023-04-09T02:44:37;7.70;99.90
54178;DHT22;40085;53.004;6.770;2023-04-09T02:47:02;7.70;99.90
54178;DHT22;40085;53.004;6.770;2023-04-09T02:49:28;7.70;99.90
54178;DHT22;40085;53.004;6.770;2023-04-09T02:51:53;7.70;99.90
54178;DHT22;40085;53.004;6.770;2023-04-09T02:54:19;7.70;99.90
54178;DHT22;40085;53.004;6.770;2023-04-09T02:56:45;7.70;99.90
54178;DHT22;40085;53.004;6.770;2023-04-09T02:59:10;7.70;99.90
54178;DHT22;40085;53.004;6.770;2023-04-09T03:01:36;7.70;99.90
54178;DHT22;40085;53.004;6.770;2023-04-09T03:04:01;7.70;99.90
54178;DHT22;40085;53.004;6.770;2023-04-09T03:06:27;7.70;99.90
54178;DHT22;40085;53.004;6.770;2023-04-09T03:08:53;7.70;99.90
54178;DHT22;40085;53.004;6.770;2023-04-09T03:11:18;7.70;99.90
54178;DHT22;40085;53.004;6.770;2023-04-09T03:13:44;7.70;99.90
54178;DHT22;40085;53.004;6.770;2023-04-09T03:16:09;7.70;99.90
54178;DHT22;40085;53.004;6.770;2023-04-09T03:18:35;7.70;99.90
54178;DHT22;40085;53.004;6.770;2023-04-09T03:21:05;7.70;99.90
54178;DHT22;40085;53.004;6.770;2023-04-09T03:23:32;7.70;99.90
54178;DHT22;40085;53.004;6.770;2023-04-09T03:26:03;7.70;99.90
54178;DHT22;40085;53.004;6.770;2023-04-09T03:28:29;7.70;99.90
54178;DHT22;40085;53.004;6.770;2023-04-09T03:30:55;7.70;99.90
54178;DHT22;40085;53.004;6.770;2023-04-09T03:33:22;7.60;99.90
54178;DHT22;40085;53.004;6.770;2023-04-09T03:35:48;7.70;99.90
54178;DHT22;40085;53.004;6.770;2023-04-09T03:38:13;7.60;99.90
54178;DHT22;40085;53.004;6.770;2023-04-09T03:40:39;7.70;99.90
54178;DHT22;40085;53.004;6.770;2023-04-09T03:43:06;7.60;99.90
54178;DHT22;40085;53.004;6.770;2023-04-09T03:45:31;7.70;99.90
54178;DHT22;40085;53.004;6.770;2023-04-09T03:47:57;7.60;99.90
54178;DHT22;40085;53.004;6.770;2023-04-09T03:50:22;7.60;99.90
54178;DHT22;40085;53.004;6.770;2023-04-09T03:52:48;7.60;99.90
54178;DHT22;40085;53.004;6.770;2023-04-09T03:55:13;7.70;99.90
54178;DHT22;40085;53.004;6.770;2023-04-09T03:57:39;7.70;99.90
54178;DHT22;40085;53.004;6.770;2023-04-09T04:00:06;7.70;99.90
54178;DHT22;40085;53.004;6.770;2023-04-09T04:02:31;7.60;99.90
54178;DHT22;40085;53.004;6.770;2023-04-09T04:04:58;7.60;99.90
54178;DHT22;40085;53.004;6.770;2023-04-09T04:07:24;7.70;99.90
54178;DHT22;40085;53.004;6.770;2023-04-09T04:09:50;7.70;99.90
54178;DHT22;40085;53.004;6.770;2023-04-09T04:12:16;7.70;99.90
54178;DHT22;40085;53.004;6.770;2023-04-09T04:14:41;7.70;99.90
54178;DHT22;40085;53.004;6.770;2023-04-09T04:17:07;7.70;99.90
54178;DHT22;40085;53.004;6.770;2023-04-09T04:19:33;7.70;99.90
54178;DHT22;40085;53.004;6.770;2023-04-09T04:21:58;7.70;99.90
54178;DHT22;40085;53.004;6.770;2023-04-09T04:24:24;7.70;99.90
54178;DHT22;40085;53.004;6.770;2023-04-09T04:26:49;7.70;99.90
54178;DHT22;40085;53.004;6.770;2023-04-09T04:29:15;7.70;99.90
54178;DHT22;40085;53.004;6.770;2023-04-09T04:31:41;7.70;99.90
54178;DHT22;40085;53.004;6.770;2023-04-09T04:34:06;7.70;99.90
54178;DHT22;40085;53.004;6.770;2023-04-09T04:36:32;7.60;99.90
54178;DHT22;40085;53.004;6.770;2023-04-09T04:38:57;7.70;99.90
54178;DHT22;40085;53.004;6.770;2023-04-09T04:41:23;7.60;99.90
54178;DHT22;40085;53.004;6.770;2023-04-09T04:43:49;7.70;99.90
54178;DHT22;40085;53.004;6.770;2023-04-09T04:46:14;7.70;99.90
54178;DHT22;40085;53.004;6.770;2023-04-09T04:48:40;7.70;99.90
54178;DHT22;40085;53.004;6.770;2023-04-09T04:51:06;7.90;99.90
54178;DHT22;40085;53.004;6.770;2023-04-09T04:53:31;7.60;99.90
54178;DHT22;40085;53.004;6.770;2023-04-09T04:55:57;7.60;99.90
54178;DHT22;40085;53.004;6.770;2023-04-09T04:58:23;7.70;99.90
54178;DHT22;40085;53.004;6.770;2023-04-09T05:00:50;7.60;99.90
54178;DHT22;40085;53.004;6.770;2023-04-09T05:03:15;7.70;99.90
54178;DHT22;40085;53.004;6.770;2023-04-09T05:05:41;7.70;99.90
54178;DHT22;40085;53.004;6.770;2023-04-09T05:08:07;7.70;99.90
54178;DHT22;40085;53.004;6.770;2023-04-09T05:10:32;7.70;99.90
54178;DHT22;40085;53.004;6.770;2023-04-09T05:12:58;7.70;99.90
54178;DHT22;40085;53.004;6.770;2023-04-09T05:15:24;7.70;99.90
54178;DHT22;40085;53.004;6.770;2023-04-09T05:17:49;7.70;99.90
54178;DHT22;40085;53.004;6.770;2023-04-09T05:20:15;7.70;99.90
54178;DHT22;40085;53.004;6.770;2023-04-09T05:22:41;7.70;99.90
54178;DHT22;40085;53.004;6.770;2023-04-09T05:25:07;7.70;99.90
54178;DHT22;40085;53.004;6.770;2023-04-09T05:27:32;7.70;99.90
54178;DHT22;40085;53.004;6.770;2023-04-09T05:29:58;7.70;99.90
54178;DHT22;40085;53.004;6.770;2023-04-09T05:32:24;7.70;99.90
54178;DHT22;40085;53.004;6.770;2023-04-09T05:34:49;7.70;99.90
54178;DHT22;40085;53.004;6.770;2023-04-09T05:37:15;7.70;99.90
54178;DHT22;40085;53.004;6.770;2023-04-09T05:39:40;7.60;99.90
54178;DHT22;40085;53.004;6.770;2023-04-09T05:42:06;7.70;99.90
54178;DHT22;40085;53.004;6.770;2023-04-09T05:44:32;7.70;99.90
54178;DHT22;40085;53.004;6.770;2023-04-09T05:46:57;7.70;99.90
54178;DHT22;40085;53.004;6.770;2023-04-09T05:49:23;7.70;99.90
54178;DHT22;40085;53.004;6.770;2023-04-09T05:51:49;7.70;99.90
54178;DHT22;40085;53.004;6.770;2023-04-09T05:54:15;7.70;99.30
54178;DHT22;40085;53.004;6.770;2023-04-09T05:56:42;7.70;99.30
54178;DHT22;40085;53.004;6.770;2023-04-09T05:59:07;7.70;98.20
54178;DHT22;40085;53.004;6.770;2023-04-09T06:01:33;7.70;98.00
54178;DHT22;40085;53.004;6.770;2023-04-09T06:03:59;7.70;97.00
54178;DHT22;40085;53.004;6.770;2023-04-09T06:06:24;7.70;96.60
54178;DHT22;40085;53.004;6.770;2023-04-09T06:08:50;7.70;96.40
54178;DHT22;40085;53.004;6.770;2023-04-09T06:11:16;7.70;97.20
54178;DHT22;40085;53.004;6.770;2023-04-09T06:13:41;7.80;99.90
54178;DHT22;40085;53.004;6.770;2023-04-09T06:16:07;7.80;99.90
54178;DHT22;40085;53.004;6.770;2023-04-09T06:18:34;7.80;99.90
54178;DHT22;40085;53.004;6.770;2023-04-09T06:21:01;7.80;99.90
54178;DHT22;40085;53.004;6.770;2023-04-09T06:23:27;7.90;99.90
54178;DHT22;40085;53.004;6.770;2023-04-09T06:25:52;8.00;99.90
54178;DHT22;40085;53.004;6.770;2023-04-09T06:28:18;8.00;99.90
54178;DHT22;40085;53.004;6.770;2023-04-09T06:30:43;8.10;99.90
54178;DHT22;40085;53.004;6.770;2023-04-09T06:33:09;8.10;99.90
54178;DHT22;40085;53.004;6.770;2023-04-09T06:35:34;8.10;99.90
54178;DHT22;40085;53.004;6.770;2023-04-09T06:38:00;8.20;99.90
54178;DHT22;40085;53.004;6.770;2023-04-09T06:40:26;8.20;99.10
54178;DHT22;40085;53.004;6.770;2023-04-09T06:42:52;8.30;98.50
54178;DHT22;40085;53.004;6.770;2023-04-09T06:45:17;8.40;97.30
54178;DHT22;40085;53.004;6.770;2023-04-09T06:47:43;8.40;96.10
54178;DHT22;40085;53.004;6.770;2023-04-09T06:50:09;8.50;95.50
54178;DHT22;40085;53.004;6.770;2023-04-09T06:52:34;8.50;92.90
54178;DHT22;40085;53.004;6.770;2023-04-09T06:55:00;8.50;87.70
54178;DHT22;40085;53.004;6.770;2023-04-09T06:57:26;8.80;79.40
54178;DHT22;40085;53.004;6.770;2023-04-09T06:59:51;8.50;71.50
54178;DHT22;40085;53.004;6.770;2023-04-09T07:02:17;8.60;69.50
54178;DHT22;40085;53.004;6.770;2023-04-09T07:04:42;8.50;70.80
54178;DHT22;40085;53.004;6.770;2023-04-09T07:07:08;8.60;69.10
54178;DHT22;40085;53.004;6.770;2023-04-09T07:09:34;8.70;73.10
54178;DHT22;40085;53.004;6.770;2023-04-09T07:11:59;8.70;61.60
54178;DHT22;40085;53.004;6.770;2023-04-09T07:14:25;8.70;65.90
54178;DHT22;40085;53.004;6.770;2023-04-09T07:16:50;8.90;64.70
54178;DHT22;40085;53.004;6.770;2023-04-09T07:19:16;8.80;47.00
54178;DHT22;40085;53.004;6.770;2023-04-09T07:21:42;8.90;41.50
54178;DHT22;40085;53.004;6.770;2023-04-09T07:24:07;8.80;23.20
54178;DHT22;40085;53.004;6.770;2023-04-09T07:26:33;8.90;15.60
54178;DHT22;40085;53.004;6.770;2023-04-09T07:28:58;8.90;28.90
54178;DHT22;40085;53.004;6.770;2023-04-09T07:31:24;9.10;29.60
54178;DHT22;40085;53.004;6.770;2023-04-09T07:33:49;9.20;7.10
54178;DHT22;40085;53.004;6.770;2023-04-09T07:36:15;9.30;2.90
54178;DHT22;40085;53.004;6.770;2023-04-09T07:38:41;9.40;1.00
54178;DHT22;40085;53.004;6.770;2023-04-09T07:41:09;9.50;1.00
54178;DHT22;40085;53.004;6.770;2023-04-09T07:43:35;9.60;1.00
54178;DHT22;40085;53.004;6.770;2023-04-09T07:46:01;9.50;1.00
54178;DHT22;40085;53.004;6.770;2023-04-09T07:48:27;9.50;1.00
54178;DHT22;40085;53.004;6.770;2023-04-09T07:50:52;9.50;1.00
54178;DHT22;40085;53.004;6.770;2023-04-09T07:53:18;9.50;1.00
54178;DHT22;40085;53.004;6.770;2023-04-09T07:55:43;9.60;1.00
54178;DHT22;40085;53.004;6.770;2023-04-09T07:58:09;9.70;1.00
54178;DHT22;40085;53.004;6.770;2023-04-09T08:00:35;9.80;1.00
54178;DHT22;40085;53.004;6.770;2023-04-09T08:03:00;9.90;1.00
54178;DHT22;40085;53.004;6.770;2023-04-09T08:05:28;10.10;1.00
54178;DHT22;40085;53.004;6.770;2023-04-09T08:07:53;9.90;1.00
54178;DHT22;40085;53.004;6.770;2023-04-09T08:10:19;10.00;1.00
54178;DHT22;40085;53.004;6.770;2023-04-09T08:12:47;10.20;1.00
54178;DHT22;40085;53.004;6.770;2023-04-09T08:15:13;10.00;1.00
54178;DHT22;40085;53.004;6.770;2023-04-09T08:17:38;10.00;1.00
54178;DHT22;40085;53.004;6.770;2023-04-09T08:20:05;10.30;1.00
54178;DHT22;40085;53.004;6.770;2023-04-09T08:22:31;10.20;1.00
54178;DHT22;40085;53.004;6.770;2023-04-09T08:24:57;10.10;1.00
54178;DHT22;40085;53.004;6.770;2023-04-09T08:27:23;10.10;1.00
54178;DHT22;40085;53.004;6.770;2023-04-09T08:29:49;10.10;1.00
54178;DHT22;40085;53.004;6.770;2023-04-09T08:32:15;10.30;1.00
54178;DHT22;40085;53.004;6.770;2023-04-09T08:34:40;10.40;1.00
54178;DHT22;40085;53.004;6.770;2023-04-09T08:37:06;10.50;99.90
54178;DHT22;40085;53.004;6.770;2023-04-09T08:39:32;10.50;99.90
54178;DHT22;40085;53.004;6.770;2023-04-09T08:41:58;10.50;99.90
54178;DHT22;40085;53.004;6.770;2023-04-09T08:44:26;10.70;99.90
54178;DHT22;40085;53.004;6.770;2023-04-09T08:46:52;10.80;1.00
54178;DHT22;40085;53.004;6.770;2023-04-09T08:49:19;10.90;99.90
54178;DHT22;40085;53.004;6.770;2023-04-09T08:51:46;11.00;99.90
54178;DHT22;40085;53.004;6.770;2023-04-09T08:54:14;11.00;99.90
54178;DHT22;40085;53.004;6.770;2023-04-09T08:56:40;11.10;99.90
54178;DHT22;40085;53.004;6.770;2023-04-09T08:59:06;11.20;99.90
54178;DHT22;40085;53.004;6.770;2023-04-09T09:01:31;11.10;99.90
54178;DHT22;40085;53.004;6.770;2023-04-09T09:04:02;11.40;99.90
54178;DHT22;40085;53.004;6.770;2023-04-09T09:06:33;11.80;99.90
54178;DHT22;40085;53.004;6.770;2023-04-09T09:11:26;11.70;99.90
54178;DHT22;40085;53.004;6.770;2023-04-09T09:14:05;11.50;99.90
54178;DHT22;40085;53.004;6.770;2023-04-09T09:16:33;11.90;99.90
54178;DHT22;40085;53.004;6.770;2023-04-09T09:19:02;12.00;99.90
54178;DHT22;40085;53.004;6.770;2023-04-09T09:21:28;12.10;99.90
54178;DHT22;40085;53.004;6.770;2023-04-09T09:23:55;12.30;99.90
54178;DHT22;40085;53.004;6.770;2023-04-09T09:26:26;12.30;60.40
54178;DHT22;40085;53.004;6.770;2023-04-09T09:28:53;12.40;1.00
54178;DHT22;40085;53.004;6.770;2023-04-09T09:31:20;12.30;99.90
54178;DHT22;40085;53.004;6.770;2023-04-09T09:33:47;12.30;99.90
54178;DHT22;40085;53.004;6.770;2023-04-09T09:36:14;12.40;99.90
54178;DHT22;40085;53.004;6.770;2023-04-09T09:38:55;12.30;48.90
54178;DHT22;40085;53.004;6.770;2023-04-09T09:41:22;12.40;93.10
54178;DHT22;40085;53.004;6.770;2023-04-09T09:43:49;12.40;99.90
54178;DHT22;40085;53.004;6.770;2023-04-09T09:46:15;12.40;99.90
54178;DHT22;40085;53.004;6.770;2023-04-09T09:48:41;12.20;99.90
54178;DHT22;40085;53.004;6.770;2023-04-09T09:51:12;12.30;99.90
54178;DHT22;40085;53.004;6.770;2023-04-09T09:53:39;12.30;1.00
54178;DHT22;40085;53.004;6.770;2023-04-09T09:56:09;12.30;99.90
54178;DHT22;40085;53.004;6.770;2023-04-09T09:58:39;12.40;99.90
54178;DHT22;40085;53.004;6.770;2023-04-09T10:01:12;12.60;99.90
54178;DHT22;40085;53.004;6.770;2023-04-09T10:03:38;12.90;99.90
54178;DHT22;40085;53.004;6.770;2023-04-09T10:06:05;12.90;99.90
54178;DHT22;40085;53.004;6.770;2023-04-09T10:08:32;12.70;99.90
54178;DHT22;40085;53.004;6.770;2023-04-09T10:11:02;14.30;1.00
54178;DHT22;40085;53.004;6.770;2023-04-09T10:13:34;13.20;99.90
54178;DHT22;40085;53.004;6.770;2023-04-09T10:16:00;13.10;26.60
54178;DHT22;40085;53.004;6.770;2023-04-09T10:18:27;13.10;84.10
54178;DHT22;40085;53.004;6.770;2023-04-09T10:21:08;13.00;77.90
54178;DHT22;40085;53.004;6.770;2023-04-09T10:23:41;13.20;1.00
54178;DHT22;40085;53.004;6.770;2023-04-09T10:26:08;13.40;99.90
54178;DHT22;40085;53.004;6.770;2023-04-09T10:28:36;13.30;99.90
54178;DHT22;40085;53.004;6.770;2023-04-09T10:31:03;13.00;1.00
54178;DHT22;40085;53.004;6.770;2023-04-09T10:33:29;12.90;99.90
54178;DHT22;40085;53.004;6.770;2023-04-09T10:36:11;13.20;99.90
54178;DHT22;40085;53.004;6.770;2023-04-09T10:38:37;13.20;1.00
54178;DHT22;40085;53.004;6.770;2023-04-09T10:41:12;14.20;99.90
54178;DHT22;40085;53.004;6.770;2023-04-09T10:43:39;13.40;3.50
54178;DHT22;40085;53.004;6.770;2023-04-09T10:46:23;13.40;99.90
54178;DHT22;40085;53.004;6.770;2023-04-09T10:49:16;13.60;99.90
54178;DHT22;40085;53.004;6.770;2023-04-09T10:52:02;13.80;99.90
54178;DHT22;40085;53.004;6.770;2023-04-09T10:59:32;13.80;99.90
54178;DHT22;40085;53.004;6.770;2023-04-09T11:01:58;14.10;99.90
54178;DHT22;40085;53.004;6.770;2023-04-09T11:04:30;14.40;99.90
54178;DHT22;40085;53.004;6.770;2023-04-09T11:06:59;14.10;46.00
54178;DHT22;40085;53.004;6.770;2023-04-09T11:09:26;13.90;99.90
54178;DHT22;40085;53.004;6.770;2023-04-09T11:11:54;13.60;99.90
54178;DHT22;40085;53.004;6.770;2023-04-09T11:14:21;13.60;1.00
54178;DHT22;40085;53.004;6.770;2023-04-09T11:16:48;13.50;67.90
54178;DHT22;40085;53.004;6.770;2023-04-09T11:19:13;13.40;99.90
54178;DHT22;40085;53.004;6.770;2023-04-09T11:21:42;13.50;1.00
54178;DHT22;40085;53.004;6.770;2023-04-09T11:24:14;13.40;1.00
54178;DHT22;40085;53.004;6.770;2023-04-09T11:26:40;13.40;99.90
54178;DHT22;40085;53.004;6.770;2023-04-09T11:29:09;13.90;1.00
54178;DHT22;40085;53.004;6.770;2023-04-09T11:31:35;13.60;99.90
54178;DHT22;40085;53.004;6.770;2023-04-09T11:34:01;13.60;99.90
54178;DHT22;40085;53.004;6.770;2023-04-09T11:36:27;13.10;99.90
54178;DHT22;40085;53.004;6.770;2023-04-09T11:38:56;13.70;99.90
54178;DHT22;40085;53.004;6.770;2023-04-09T11:41:36;13.80;99.90
54178;DHT22;40085;53.004;6.770;2023-04-09T11:44:07;13.90;99.90
54178;DHT22;40085;53.004;6.770;2023-04-09T11:46:36;14.10;99.90
54178;DHT22;40085;53.004;6.770;2023-04-09T11:49:02;14.10;1.00
54178;DHT22;40085;53.004;6.770;2023-04-09T11:51:29;14.20;1.00
54178;DHT22;40085;53.004;6.770;2023-04-09T11:54:05;14.30;27.10
54178;DHT22;40085;53.004;6.770;2023-04-09T11:56:31;14.30;1.00
54178;DHT22;40085;53.004;6.770;2023-04-09T12:01:23;14.70;99.90
54178;DHT22;40085;53.004;6.770;2023-04-09T12:03:53;14.70;99.90
54178;DHT22;40085;53.004;6.770;2023-04-09T12:06:20;15.10;1.00
54178;DHT22;40085;53.004;6.770;2023-04-09T12:08:56;14.50;1.00
54178;DHT22;40085;53.004;6.770;2023-04-09T12:11:29;14.30;1.00
54178;DHT22;40085;53.004;6.770;2023-04-09T12:14:06;14.30;99.90
54178;DHT22;40085;53.004;6.770;2023-04-09T12:16:34;14.40;99.90
54178;DHT22;40085;53.004;6.770;2023-04-09T12:19:05;14.40;99.90
54178;DHT22;40085;53.004;6.770;2023-04-09T12:21:51;14.30;99.90
54178;DHT22;40085;53.004;6.770;2023-04-09T12:24:22;14.60;99.90
54178;DHT22;40085;53.004;6.770;2023-04-09T12:26:48;14.50;90.70
54178;DHT22;40085;53.004;6.770;2023-04-09T12:29:16;15.00;14.40
54178;DHT22;40085;53.004;6.770;2023-04-09T12:31:43;15.30;1.00
54178;DHT22;40085;53.004;6.770;2023-04-09T12:34:09;14.90;99.90
54178;DHT22;40085;53.004;6.770;2023-04-09T12:36:37;15.00;99.90
54178;DHT22;40085;53.004;6.770;2023-04-09T12:39:02;14.80;99.90
54178;DHT22;40085;53.004;6.770;2023-04-09T12:41:29;14.60;61.70
54178;DHT22;40085;53.004;6.770;2023-04-09T12:43:55;14.70;99.90
54178;DHT22;40085;53.004;6.770;2023-04-09T12:46:21;14.60;18.50
54178;DHT22;40085;53.004;6.770;2023-04-09T12:48:47;15.00;1.00
54178;DHT22;40085;53.004;6.770;2023-04-09T12:51:13;14.40;1.00
54178;DHT22;40085;53.004;6.770;2023-04-09T12:53:39;14.40;1.00
54178;DHT22;40085;53.004;6.770;2023-04-09T12:56:05;14.70;1.00
54178;DHT22;40085;53.004;6.770;2023-04-09T12:58:31;14.60;99.90
54178;DHT22;40085;53.004;6.770;2023-04-09T13:00:57;14.50;99.90
54178;DHT22;40085;53.004;6.770;2023-04-09T13:03:23;14.50;1.00
54178;DHT22;40085;53.004;6.770;2023-04-09T13:05:49;14.50;99.90
54178;DHT22;40085;53.004;6.770;2023-04-09T13:08:16;14.40;99.90
54178;DHT22;40085;53.004;6.770;2023-04-09T13:10:42;14.70;99.90
54178;DHT22;40085;53.004;6.770;2023-04-09T13:13:07;14.90;99.90
54178;DHT22;40085;53.004;6.770;2023-04-09T13:15:40;14.90;99.90
54178;DHT22;40085;53.004;6.770;2023-04-09T13:18:12;14.80;99.90
54178;DHT22;40085;53.004;6.770;2023-04-09T13:20:38;15.20;99.90
54178;DHT22;40085;53.004;6.770;2023-04-09T13:23:04;15.00;99.90
54178;DHT22;40085;53.004;6.770;2023-04-09T13:25:30;15.20;99.90
54178;DHT22;40085;53.004;6.770;2023-04-09T13:27:55;15.50;99.90
54178;DHT22;40085;53.004;6.770;2023-04-09T13:30:22;15.60;99.90
54178;DHT22;40085;53.004;6.770;2023-04-09T13:32:47;16.00;99.90
54178;DHT22;40085;53.004;6.770;2023-04-09T13:35:13;16.00;99.90
54178;DHT22;40085;53.004;6.770;2023-04-09T13:37:39;16.00;99.90
54178;DHT22;40085;53.004;6.770;2023-04-09T13:40:05;15.80;99.90
54178;DHT22;40085;53.004;6.770;2023-04-09T13:42:33;15.80;99.90
54178;DHT22;40085;53.004;6.770;2023-04-09T13:44:58;15.80;99.90
54178;DHT22;40085;53.004;6.770;2023-04-09T13:47:24;15.90;99.90
54178;DHT22;40085;53.004;6.770;2023-04-09T13:49:50;15.80;99.90
54178;DHT22;40085;53.004;6.770;2023-04-09T13:52:18;15.80;99.90
54178;DHT22;40085;53.004;6.770;2023-04-09T13:54:44;15.60;99.90
54178;DHT22;40085;53.004;6.770;2023-04-09T13:57:10;15.60;99.90
54178;DHT22;40085;53.004;6.770;2023-04-09T13:59:35;15.50;91.70
54178;DHT22;40085;53.004;6.770;2023-04-09T14:02:02;15.50;99.90
54178;DHT22;40085;53.004;6.770;2023-04-09T14:04:28;15.80;99.80
54178;DHT22;40085;53.004;6.770;2023-04-09T14:06:54;16.00;92.60
54178;DHT22;40085;53.004;6.770;2023-04-09T14:09:19;16.90;99.90
54178;DHT22;40085;53.004;6.770;2023-04-09T14:11:45;16.30;99.90
54178;DHT22;40085;53.004;6.770;2023-04-09T14:14:11;16.40;82.60
54178;DHT22;40085;53.004;6.770;2023-04-09T14:16:36;16.50;93.00
54178;DHT22;40085;53.004;6.770;2023-04-09T14:19:02;16.70;41.50
54178;DHT22;40085;53.004;6.770;2023-04-09T14:21:28;16.50;24.40
54178;DHT22;40085;53.004;6.770;2023-04-09T14:23:53;16.40;29.60
54178;DHT22;40085;53.004;6.770;2023-04-09T14:26:19;16.30;3.60
54178;DHT22;40085;53.004;6.770;2023-04-09T14:28:45;16.10;13.30
54178;DHT22;40085;53.004;6.770;2023-04-09T14:31:12;16.40;3.80
54178;DHT22;40085;53.004;6.770;2023-04-09T14:33:39;16.40;1.00
54178;DHT22;40085;53.004;6.770;2023-04-09T14:36:05;16.50;1.00
54178;DHT22;40085;53.004;6.770;2023-04-09T14:38:32;16.70;1.10
54178;DHT22;40085;53.004;6.770;2023-04-09T14:40:58;16.60;1.00
54178;DHT22;40085;53.004;6.770;2023-04-09T14:43:23;16.50;1.00
54178;DHT22;40085;53.004;6.770;2023-04-09T14:45:49;16.90;1.00
54178;DHT22;40085;53.004;6.770;2023-04-09T14:48:16;17.20;1.00
54178;DHT22;40085;53.004;6.770;2023-04-09T14:50:42;16.50;1.00
54178;DHT22;40085;53.004;6.770;2023-04-09T14:53:08;16.50;1.00
54178;DHT22;40085;53.004;6.770;2023-04-09T14:55:34;15.90;1.00
54178;DHT22;40085;53.004;6.770;2023-04-09T14:58:00;15.70;1.00
54178;DHT22;40085;53.004;6.770;2023-04-09T15:00:28;15.90;1.00
54178;DHT22;40085;53.004;6.770;2023-04-09T15:02:54;16.40;5.10
54178;DHT22;40085;53.004;6.770;2023-04-09T15:05:20;16.40;1.00
54178;DHT22;40085;53.004;6.770;2023-04-09T15:07:46;16.70;1.00
54178;DHT22;40085;53.004;6.770;2023-04-09T15:10:11;16.90;1.00
54178;DHT22;40085;53.004;6.770;2023-04-09T15:12:37;17.20;1.00
54178;DHT22;40085;53.004;6.770;2023-04-09T15:15:07;17.40;1.00
54178;DHT22;40085;53.004;6.770;2023-04-09T15:17:33;17.60;1.00
54178;DHT22;40085;53.004;6.770;2023-04-09T15:19:58;17.10;1.00
54178;DHT22;40085;53.004;6.770;2023-04-09T15:22:24;17.50;1.00
54178;DHT22;40085;53.004;6.770;2023-04-09T15:24:50;17.50;1.00
54178;DHT22;40085;53.004;6.770;2023-04-09T15:27:16;17.70;1.00
54178;DHT22;40085;53.004;6.770;2023-04-09T15:29:42;17.30;1.00
54178;DHT22;40085;53.004;6.770;2023-04-09T15:32:08;16.80;1.00
54178;DHT22;40085;53.004;6.770;2023-04-09T15:34:34;16.60;1.00
54178;DHT22;40085;53.004;6.770;2023-04-09T15:36:59;16.90;1.00
54178;DHT22;40085;53.004;6.770;2023-04-09T15:39:25;15.90;1.00
54178;DHT22;40085;53.004;6.770;2023-04-09T15:41:53;15.80;1.00
54178;DHT22;40085;53.004;6.770;2023-04-09T15:44:20;15.70;1.00
54178;DHT22;40085;53.004;6.770;2023-04-09T15:46:45;15.70;1.00
54178;DHT22;40085;53.004;6.770;2023-04-09T15:49:11;15.60;1.00
54178;DHT22;40085;53.004;6.770;2023-04-09T15:51:36;15.60;1.00
54178;DHT22;40085;53.004;6.770;2023-04-09T15:54:02;15.90;1.00
54178;DHT22;40085;53.004;6.770;2023-04-09T15:56:27;15.90;1.00